Time;durP1;ratioP1;P1;durP2;ratioP2;P2;SDS_P1;SDS_P2;PMS_P1;PMS_P2;Temp;Humidity;BMP_temperature;BMP_pressure;BME280_temperature;BME280_humidity;BME280_pressure;Samples;Min_cycle;Max_cycle;Signal;HPM_P1;HPM_P2
2022/06/13 00:00:50;;;;;;;38.13;7.38;;;;;;;;;;5038004;28;20040;-78
2022/06/13 00:03:16;;;;;;;27.38;7.30;;;;;;;;;;5037418;28;20037;-77
2022/06/13 00:05:42;;;;;;;32.85;6.70;;;;;;;;;;5037914;28;20025;-77
2022/06/13 00:08:08;;;;;;;35.88;6.63;;;;;;;;;;5040227;28;20085;-77
2022/06/13 00:10:36;;;;;;;26.52;6.63;;;;;;;;;;5037237;28;20025;-79
2022/06/13 00:13:02;;;;;;;31.77;7.00;;;;;;;;;;5035759;28;20469;-77
2022/06/13 00:15:28;;;;;;;27.25;6.35;;;;;;;;;;5036254;28;20034;-78
2022/06/13 00:17:54;;;;;;;32.42;7.22;;;;;;;;;;5036673;28;20033;-76
2022/06/13 00:20:20;;;;;;;38.08;7.90;;;;;;;;;;5040397;28;20029;-76
2022/06/13 00:22:46;;;;;;;32.10;7.13;;;;;;;;;;5039029;28;20030;-76
2022/06/13 00:25:13;;;;;;;33.88;7.00;;;;;;;;;;5040264;28;20035;-77
2022/06/13 00:27:39;;;;;;;27.55;7.60;;;;;;;;;;5040005;28;20060;-76
2022/06/13 00:30:06;;;;;;;30.17;7.22;;;;;;;;;;5038038;28;20025;-76
2022/06/13 00:32:32;;;;;;;29.13;6.82;;;;;;;;;;5034406;28;20033;-76
2022/06/13 00:34:58;;;;;;;37.35;7.55;;;;;;;;;;5035041;28;20032;-76
2022/06/13 00:37:24;;;;;;;31.30;7.22;;;;;;;;;;5038917;28;20080;-76
2022/06/13 00:39:50;;;;;;;41.95;8.07;;;;;;;;;;5034059;28;20029;-76
2022/06/13 00:42:18;;;;;;;44.88;7.47;;;;;;;;;;5033404;28;20107;-77
2022/06/13 00:45:02;;;;;;;29.65;6.93;;;;;;;;;;5036187;28;20032;-75
2022/06/13 00:47:29;;;;;;;29.52;6.82;;;;;;;;;;5039962;28;20040;-77
2022/06/13 00:49:55;;;;;;;35.65;7.40;;;;;;;;;;5033092;28;20037;-77
2022/06/13 00:52:26;;;;;;;28.15;6.93;;;;;;;;;;5033260;28;20033;-78
2022/06/13 00:54:52;;;;;;;25.42;6.53;;;;;;;;;;5033783;28;20117;-76
2022/06/13 00:57:20;;;;;;;27.13;6.40;;;;;;;;;;5032607;28;20030;-76
2022/06/13 00:59:47;;;;;;;24.45;7.00;;;;;;;;;;5035956;28;20028;-77
2022/06/13 01:02:13;;;;;;;26.98;6.72;;;;;;;;;;5034050;28;20393;-76
2022/06/13 01:04:42;;;;;;;27.73;6.28;;;;;;;;;;5033036;28;20026;-77
2022/06/13 01:07:11;;;;;;;31.88;6.82;;;;;;;;;;5032256;28;20032;-76
2022/06/13 01:12:23;;;;;;;35.78;7.78;;;;;;;;;;5032043;28;20045;-77
2022/06/13 01:15:08;;;;;;;33.22;7.00;;;;;;;;;;5039438;28;20021;-76
2022/06/13 01:17:54;;;;;;;33.33;6.60;;;;;;;;;;5046022;28;20025;-75
2022/06/13 01:20:38;;;;;;;29.70;6.93;;;;;;;;;;5038261;28;20033;-77
2022/06/13 01:23:07;;;;;;;37.97;7.50;;;;;;;;;;5033360;28;20400;-77
2022/06/13 01:25:39;;;;;;;27.98;7.22;;;;;;;;;;5031827;28;20026;-77
2022/06/13 01:28:08;;;;;;;42.95;8.43;;;;;;;;;;5033409;28;20033;-77
2022/06/13 01:30:44;;;;;;;31.63;7.18;;;;;;;;;;5042031;28;20017;-77
2022/06/13 01:33:22;;;;;;;39.72;7.35;;;;;;;;;;5053402;28;20032;-77
2022/06/13 01:35:48;;;;;;;36.70;6.88;;;;;;;;;;5052431;28;20025;-77
2022/06/13 01:38:25;;;;;;;41.53;7.32;;;;;;;;;;5056740;28;20130;-77
2022/06/13 01:41:09;;;;;;;35.08;7.13;;;;;;;;;;5056406;28;20029;-77
2022/06/13 01:43:35;;;;;;;;;;;;;;;;;;5053423;28;20025;-78
2022/06/13 01:46:07;;;;;;;29.50;6.57;;;;;;;;;;5052586;28;19904;-77
2022/06/13 01:48:33;;;;;;;27.70;6.60;;;;;;;;;;5050837;28;20029;-77
2022/06/13 01:51:04;;;;;;;31.95;6.40;;;;;;;;;;5062665;28;20036;-76
2022/06/13 01:53:33;;;;;;;33.13;7.38;;;;;;;;;;5052672;28;20025;-77
2022/06/13 01:56:06;;;;;;;36.33;7.07;;;;;;;;;;5051867;28;20029;-77
2022/06/13 01:58:32;;;;;;;35.65;8.00;;;;;;;;;;5053754;28;20088;-77
2022/06/13 02:01:03;;;;;;;34.72;7.18;;;;;;;;;;5054805;28;20059;-77
2022/06/13 02:03:31;;;;;;;33.50;7.05;;;;;;;;;;5056807;28;20040;-76
2022/06/13 02:06:03;;;;;;;24.05;6.93;;;;;;;;;;5055247;28;20017;-77
2022/06/13 02:08:35;;;;;;;28.85;6.47;;;;;;;;;;5056439;28;20497;-77
2022/06/13 02:11:06;;;;;;;31.05;7.20;;;;;;;;;;5058541;28;20481;-77
2022/06/13 02:13:39;;;;;;;32.95;7.05;;;;;;;;;;5060283;28;20034;-77
2022/06/13 02:16:08;;;;;;;35.17;8.07;;;;;;;;;;5056758;28;20393;-77
2022/06/13 02:18:36;;;;;;;25.83;6.60;;;;;;;;;;5057806;28;20033;-77
2022/06/13 02:21:08;;;;;;;30.27;7.20;;;;;;;;;;5059403;28;20532;-77
2022/06/13 02:23:38;;;;;;;30.30;6.97;;;;;;;;;;5060097;28;20025;-77
2022/06/13 02:26:06;;;;;;;46.33;7.43;;;;;;;;;;5055784;28;20509;-77
2022/06/13 02:28:38;;;;;;;28.15;7.40;;;;;;;;;;5055386;28;20033;-76
2022/06/13 02:31:08;;;;;;;30.55;7.53;;;;;;;;;;5055595;28;20104;-76
2022/06/13 02:33:37;;;;;;;28.85;7.50;;;;;;;;;;5054866;28;20031;-77
2022/06/13 02:36:05;;;;;;;35.83;8.30;;;;;;;;;;5053633;28;20025;-77
2022/06/13 02:38:40;;;;;;;34.03;7.95;;;;;;;;;;5055890;28;20029;-77
2022/06/13 02:41:08;;;;;;;41.40;8.10;;;;;;;;;;5056384;28;20029;-78
2022/06/13 02:43:40;;;;;;;28.40;7.38;;;;;;;;;;5057901;28;20084;-77
2022/06/13 02:46:25;;;;;;;38.70;7.97;;;;;;;;;;5058382;28;20021;-78
2022/06/13 02:48:51;;;;;;;;;;;;;;;;;;5057178;28;20046;-78
2022/06/13 02:51:35;;;;;;;33.25;8.57;;;;;;;;;;5056234;28;19919;-77
2022/06/13 02:54:04;;;;;;;38.45;8.10;;;;;;;;;;5055485;28;20032;-77
2022/06/13 02:59:45;;;;;;;38.53;8.55;;;;;;;;;;5055189;28;20056;-76
2022/06/13 03:02:14;;;;;;;38.17;8.90;;;;;;;;;;5055214;28;20085;-77
2022/06/13 03:04:45;;;;;;;30.60;8.07;;;;;;;;;;5058827;28;20020;-77
2022/06/13 03:07:20;;;;;;;36.75;9.43;;;;;;;;;;5059522;28;20028;-78
2022/06/13 03:09:46;;;;;;;27.88;8.90;;;;;;;;;;5056976;28;20029;-76
2022/06/13 03:12:31;;;;;;;32.25;8.88;;;;;;;;;;5055601;28;20037;-77
2022/06/13 03:15:04;;;;;;;34.17;7.90;;;;;;;;;;5056421;28;20040;-77
2022/06/13 03:17:45;;;;;;;40.08;9.07;;;;;;;;;;5061720;28;20040;-77
2022/06/13 03:20:24;;;;;;;32.20;8.57;;;;;;;;;;5065464;28;20502;-77
2022/06/13 03:22:54;;;;;;;37.35;8.55;;;;;;;;;;5057175;28;20032;-78
2022/06/13 03:25:23;;;;;;;34.03;8.27;;;;;;;;;;5060506;28;20021;-78
2022/06/13 03:27:55;;;;;;;37.42;8.50;;;;;;;;;;5060005;28;20028;-77
2022/06/13 03:30:22;;;;;;;39.28;8.77;;;;;;;;;;5058752;28;20073;-77
2022/06/13 03:35:38;;;;;;;32.60;8.25;;;;;;;;;;5056804;28;20087;-77
2022/06/13 03:38:06;;;;;;;35.28;8.23;;;;;;;;;;5055469;28;20052;-77
2022/06/13 03:40:33;;;;;;;34.35;8.63;;;;;;;;;;5055493;28;20029;-77
2022/06/13 03:43:08;;;;;;;35.67;8.30;;;;;;;;;;5055768;28;20071;-76
2022/06/13 03:45:40;;;;;;;33.55;7.65;;;;;;;;;;5055582;28;20033;-75
2022/06/13 03:48:10;;;;;;;41.47;9.23;;;;;;;;;;5059580;28;20025;-79
2022/06/13 03:50:42;;;;;;;38.03;8.50;;;;;;;;;;5062413;28;20108;-75
2022/06/13 03:53:30;;;;;;;38.00;8.90;;;;;;;;;;5062555;28;20032;-76
2022/06/13 03:55:56;;;;;;;32.95;7.63;;;;;;;;;;5064059;28;20106;-75
2022/06/13 03:58:30;;;;;;;35.38;8.38;;;;;;;;;;5065882;28;20029;-74
2022/06/13 04:01:08;;;;;;;40.10;8.27;;;;;;;;;;5065189;28;20028;-74
2022/06/13 04:03:34;;;;;;;34.55;7.00;;;;;;;;;;5066007;28;20024;-76
2022/06/13 04:06:02;;;;;;;33.67;7.30;;;;;;;;;;5064575;28;20048;-75
2022/06/13 04:08:30;;;;;;;27.67;8.85;;;;;;;;;;5064613;28;20029;-75
2022/06/13 04:11:09;;;;;;;38.42;8.63;;;;;;;;;;5061473;28;20033;-75
2022/06/13 04:13:47;;;;;;;40.50;8.50;;;;;;;;;;5055441;28;20021;-74
2022/06/13 04:16:32;;;;;;;27.85;7.72;;;;;;;;;;5054338;28;20079;-75
2022/06/13 04:19:01;;;;;;;26.08;6.72;;;;;;;;;;5053513;28;20036;-75
2022/06/13 04:21:39;;;;;;;34.58;8.13;;;;;;;;;;5054579;28;20027;-74
2022/06/13 04:24:14;;;;;;;35.50;8.20;;;;;;;;;;5055120;28;20031;-75
2022/06/13 04:26:39;;;;;;;;;;;;;;;;;;5055392;28;20158;-75
2022/06/13 04:29:12;;;;;;;40.50;8.00;;;;;;;;;;5054744;28;19978;-76
2022/06/13 04:31:39;;;;;;;39.42;9.20;;;;;;;;;;5054682;28;20481;-75
2022/06/13 04:34:12;;;;;;;33.92;7.53;;;;;;;;;;5055401;28;20025;-74
2022/06/13 04:36:38;;;;;;;38.55;8.68;;;;;;;;;;5054602;28;20102;-76
2022/06/13 04:39:07;;;;;;;32.90;8.48;;;;;;;;;;5054895;28;20113;-75
2022/06/13 04:41:35;;;;;;;31.45;8.52;;;;;;;;;;5055993;28;20025;-75
2022/06/13 04:44:03;;;;;;;35.42;8.80;;;;;;;;;;5055435;28;20040;-74
2022/06/13 04:46:30;;;;;;;25.48;7.15;;;;;;;;;;5055344;28;20035;-75
2022/06/13 04:48:58;;;;;;;32.60;8.25;;;;;;;;;;5056575;28;20029;-75
2022/06/13 04:51:25;;;;;;;38.78;7.22;;;;;;;;;;5058047;28;20207;-76
2022/06/13 04:53:54;;;;;;;28.55;7.63;;;;;;;;;;5055154;28;20025;-77
2022/06/13 04:56:21;;;;;;;39.63;8.20;;;;;;;;;;5054755;28;20021;-76
2022/06/13 04:58:48;;;;;;;39.28;8.68;;;;;;;;;;5054481;28;20070;-77
2022/06/13 05:01:22;;;;;;;25.38;7.60;;;;;;;;;;5054557;28;20048;-75
2022/06/13 05:03:49;;;;;;;28.42;6.93;;;;;;;;;;5054370;28;20428;-76
2022/06/13 05:06:54;;;;;;;32.33;7.82;;;;;;;;;;5078539;22;20029;-70
2022/06/13 05:09:20;;;;;;;33.65;8.20;;;;;;;;;;5008523;28;20048;-69
2022/06/13 05:12:06;;;;;;;32.15;7.53;;;;;;;;;;5010853;28;20108;-69
2022/06/13 05:14:40;;;;;;;37.90;7.65;;;;;;;;;;5024045;28;20033;-68
2022/06/13 05:17:15;;;;;;;38.75;8.80;;;;;;;;;;5032134;28;20034;-68
2022/06/13 05:19:52;;;;;;;28.80;7.82;;;;;;;;;;5033024;28;20025;-68
2022/06/13 05:22:21;;;;;;;32.30;7.32;;;;;;;;;;5033092;28;20022;-68
2022/06/13 05:25:03;;;;;;;24.65;7.00;;;;;;;;;;5032165;28;20021;-68
2022/06/13 05:27:29;;;;;;;24.60;6.70;;;;;;;;;;5032622;28;20029;-68
2022/06/13 05:29:55;;;;;;;34.80;7.65;;;;;;;;;;5030821;28;20049;-69
2022/06/13 05:32:22;;;;;;;29.52;8.48;;;;;;;;;;5032029;28;20025;-70
2022/06/13 05:34:48;;;;;;;33.70;7.00;;;;;;;;;;5035594;28;20033;-67
2022/06/13 05:37:16;;;;;;;31.00;7.78;;;;;;;;;;5036432;28;20030;-69
2022/06/13 05:39:42;;;;;;;31.63;7.75;;;;;;;;;;5037522;28;20029;-68
2022/06/13 05:42:08;;;;;;;32.78;7.30;;;;;;;;;;5035637;28;20482;-68
2022/06/13 05:44:34;;;;;;;32.58;7.25;;;;;;;;;;5036099;28;20033;-69
2022/06/13 05:47:00;;;;;;;29.23;6.30;;;;;;;;;;5035575;28;20471;-70
2022/06/13 05:49:26;;;;;;;27.15;5.95;;;;;;;;;;5035561;28;20040;-70
2022/06/13 05:51:52;;;;;;;34.85;6.78;;;;;;;;;;5040937;28;20022;-69
2022/06/13 05:54:18;;;;;;;27.77;7.18;;;;;;;;;;5035526;28;20478;-68
2022/06/13 05:56:43;;;;;;;28.77;6.60;;;;;;;;;;5037721;28;20033;-69
2022/06/13 05:59:10;;;;;;;31.50;7.45;;;;;;;;;;5036524;28;20025;-69
2022/06/13 06:01:36;;;;;;;29.48;7.28;;;;;;;;;;5037048;28;20100;-70
2022/06/13 06:04:03;;;;;;;28.63;6.00;;;;;;;;;;5036552;28;20029;-70
2022/06/13 06:06:30;;;;;;;30.05;6.97;;;;;;;;;;5039842;28;20021;-69
2022/06/13 06:08:56;;;;;;;29.98;6.63;;;;;;;;;;5037861;28;20105;-68
2022/06/13 06:11:23;;;;;;;34.55;6.72;;;;;;;;;;5038026;28;20134;-70
2022/06/13 06:13:49;;;;;;;27.05;6.05;;;;;;;;;;5036741;28;20021;-69
2022/06/13 06:16:16;;;;;;;29.48;9.05;;;;;;;;;;5035435;28;20489;-70
2022/06/13 06:18:42;;;;;;;30.08;6.20;;;;;;;;;;5035594;28;20021;-69
2022/06/13 06:21:08;;;;;;;28.90;5.70;;;;;;;;;;5036134;28;20032;-69
2022/06/13 06:23:35;;;;;;;29.80;5.93;;;;;;;;;;5034849;28;20025;-71
2022/06/13 06:26:02;;;;;;;22.10;5.20;;;;;;;;;;5034904;28;20030;-72
2022/06/13 06:28:29;;;;;;;29.58;5.65;;;;;;;;;;5033119;28;20120;-71
2022/06/13 06:30:56;;;;;;;32.20;5.90;;;;;;;;;;5032686;28;20131;-72
2022/06/13 06:33:23;;;;;;;28.30;5.15;;;;;;;;;;5034839;28;20030;-69
2022/06/13 06:35:50;;;;;;;30.25;5.72;;;;;;;;;;5034314;28;20109;-71
2022/06/13 06:38:16;;;;;;;25.95;5.38;;;;;;;;;;5034678;28;20025;-70
2022/06/13 06:40:42;;;;;;;27.63;5.30;;;;;;;;;;5034557;28;20525;-72
2022/06/13 06:43:09;;;;;;;27.60;5.80;;;;;;;;;;5034389;28;20100;-71
2022/06/13 06:45:35;;;;;;;32.88;5.60;;;;;;;;;;5034094;28;20490;-70
2022/06/13 06:48:01;;;;;;;21.27;5.25;;;;;;;;;;5034748;28;20029;-70
2022/06/13 06:50:29;;;;;;;21.25;5.28;;;;;;;;;;5035170;28;20025;-70
2022/06/13 06:52:56;;;;;;;34.22;5.50;;;;;;;;;;5036799;28;20045;-69
2022/06/13 07:00:58;;;;;;;22.50;4.88;;;;;;;;;;5034867;28;20064;-69
2022/06/13 07:03:24;;;;;;;21.58;6.05;;;;;;;;;;5035529;28;20049;-68
2022/06/13 07:05:51;;;;;;;25.73;5.82;;;;;;;;;;5035846;28;20022;-69
2022/06/13 07:08:17;;;;;;;31.73;5.60;;;;;;;;;;5035990;28;20474;-69
2022/06/13 07:10:49;;;;;;;34.53;9.63;;;;;;;;;;5038224;28;20032;-70
2022/06/13 07:13:15;;;;;;;24.00;5.80;;;;;;;;;;5042362;28;20032;-69
2022/06/13 07:15:42;;;;;;;28.90;6.60;;;;;;;;;;5041261;28;20037;-70
2022/06/13 07:18:08;;;;;;;21.65;4.50;;;;;;;;;;5035072;28;20026;-73
2022/06/13 07:20:35;;;;;;;26.35;5.45;;;;;;;;;;5034368;28;20058;-69
2022/06/13 07:23:01;;;;;;;18.42;3.88;;;;;;;;;;5034809;28;20031;-71
2022/06/13 07:25:28;;;;;;;17.60;4.60;;;;;;;;;;5034854;28;20335;-70
2022/06/13 07:27:54;;;;;;;22.65;4.55;;;;;;;;;;5034478;28;20021;-70
2022/06/13 07:30:21;;;;;;;18.83;4.22;;;;;;;;;;5034796;28;20060;-71
2022/06/13 07:32:47;;;;;;;13.10;3.00;;;;;;;;;;5038221;28;20411;-69
2022/06/13 07:35:16;;;;;;;11.63;3.03;;;;;;;;;;5041629;28;20030;-69
2022/06/13 07:40:27;;;;;;;12.70;2.28;;;;;;;;;;5034290;28;20060;-68
2022/06/13 07:43:01;;;;;;;10.52;2.55;;;;;;;;;;5032667;28;20026;-70
2022/06/13 07:45:28;;;;;;;17.27;6.25;;;;;;;;;;5034976;28;20036;-71
2022/06/13 07:47:54;;;;;;;17.70;4.53;;;;;;;;;;5034323;28;20038;-69
2022/06/13 07:50:23;;;;;;;7.55;2.10;;;;;;;;;;5033691;28;20029;-70
2022/06/13 07:52:50;;;;;;;11.80;3.20;;;;;;;;;;5033788;28;20098;-69
2022/06/13 07:55:17;;;;;;;8.05;2.20;;;;;;;;;;5033357;28;20068;-69
2022/06/13 07:57:43;;;;;;;12.30;2.92;;;;;;;;;;5032714;28;20040;-69
2022/06/13 08:00:11;;;;;;;14.10;3.40;;;;;;;;;;5033462;28;20065;-69
2022/06/13 08:02:38;;;;;;;6.72;2.30;;;;;;;;;;5033237;28;20068;-70
2022/06/13 08:05:04;;;;;;;9.88;2.25;;;;;;;;;;5033271;28;20029;-68
2022/06/13 08:07:30;;;;;;;5.47;2.03;;;;;;;;;;5032896;28;20087;-68
2022/06/13 08:09:56;;;;;;;9.15;2.00;;;;;;;;;;5032942;28;20033;-68
2022/06/13 08:12:22;;;;;;;12.52;2.75;;;;;;;;;;5032459;28;20031;-69
2022/06/13 08:14:48;;;;;;;10.05;2.30;;;;;;;;;;5032757;28;20026;-68
2022/06/13 08:17:15;;;;;;;7.13;2.08;;;;;;;;;;5032360;28;20522;-68
2022/06/13 08:19:41;;;;;;;9.63;2.42;;;;;;;;;;5032541;28;20466;-69
2022/06/13 08:22:07;;;;;;;8.65;2.10;;;;;;;;;;5032451;28;20405;-68
2022/06/13 08:24:33;;;;;;;11.77;3.63;;;;;;;;;;5032478;28;20033;-70
2022/06/13 08:26:59;;;;;;;15.68;3.00;;;;;;;;;;5032663;28;20033;-70
2022/06/13 08:29:25;;;;;;;9.27;3.13;;;;;;;;;;5032661;28;20087;-69
2022/06/13 08:31:51;;;;;;;12.27;2.10;;;;;;;;;;5033048;28;20036;-69
2022/06/13 08:34:17;;;;;;;8.18;2.03;;;;;;;;;;5033174;28;20355;-69
2022/06/13 08:36:43;;;;;;;7.63;2.03;;;;;;;;;;5032250;28;20026;-69
2022/06/13 08:39:09;;;;;;;7.35;1.70;;;;;;;;;;5033843;28;20393;-70
2022/06/13 08:41:44;;;;;;;11.88;2.08;;;;;;;;;;5033021;28;20545;-68
2022/06/13 08:44:19;;;;;;;9.57;2.30;;;;;;;;;;5033156;28;20061;-69
2022/06/13 08:46:45;;;;;;;;;;;;;;;;;;5032791;28;20037;-68
2022/06/13 08:49:15;;;;;;;7.47;1.98;;;;;;;;;;5031121;28;19955;-68
2022/06/13 08:51:45;;;;;;;8.13;1.75;;;;;;;;;;5032646;28;20025;-69
2022/06/13 08:54:13;;;;;;;4.47;1.92;;;;;;;;;;5037835;28;20036;-70
2022/06/13 08:56:39;;;;;;;2.70;1.40;;;;;;;;;;5041950;28;20036;-70
2022/06/13 08:59:23;;;;;;;10.85;1.60;;;;;;;;;;5037183;28;20390;-71
2022/06/13 09:02:09;;;;;;;15.88;5.70;;;;;;;;;;5031672;28;20040;-69
2022/06/13 09:04:53;;;;;;;5.00;1.40;;;;;;;;;;5033344;28;20064;-71
2022/06/13 09:07:27;;;;;;;6.60;1.38;;;;;;;;;;5034341;28;20087;-71
2022/06/13 09:10:06;;;;;;;5.30;1.40;;;;;;;;;;5039462;28;20037;-69
2022/06/13 09:12:46;;;;;;;3.28;1.17;;;;;;;;;;5033598;28;20074;-70
2022/06/13 09:15:17;;;;;;;3.35;1.42;;;;;;;;;;5034120;28;20140;-69
2022/06/13 09:17:52;;;;;;;3.75;1.27;;;;;;;;;;5033731;28;20134;-69
2022/06/13 09:20:19;;;;;;;4.20;1.40;;;;;;;;;;5032320;28;20436;-71
2022/06/13 09:23:04;;;;;;;2.63;1.20;;;;;;;;;;5034578;28;20029;-71
2022/06/13 09:25:36;;;;;;;5.03;1.17;;;;;;;;;;5032113;28;20022;-70
2022/06/13 09:28:07;;;;;;;4.60;1.10;;;;;;;;;;5032591;28;20059;-69
2022/06/13 09:30:35;;;;;;;4.78;1.30;;;;;;;;;;5037039;28;20033;-68
2022/06/13 09:33:14;;;;;;;7.60;1.65;;;;;;;;;;5036998;28;20029;-69
2022/06/13 09:35:47;;;;;;;5.00;1.45;;;;;;;;;;5033809;28;20394;-68
2022/06/13 09:38:17;;;;;;;4.78;1.90;;;;;;;;;;5035413;28;20021;-69
2022/06/13 09:40:43;;;;;;;11.40;1.55;;;;;;;;;;5037374;28;20475;-70
2022/06/13 09:43:18;;;;;;;6.00;1.55;;;;;;;;;;5038672;28;20044;-69
2022/06/13 09:45:56;;;;;;;8.00;1.48;;;;;;;;;;5047461;28;20014;-67
2022/06/13 09:48:26;;;;;;;5.10;1.77;;;;;;;;;;5048978;28;20182;-73
2022/06/13 09:50:55;;;;;;;8.50;2.10;;;;;;;;;;5050875;28;20028;-69
2022/06/13 09:53:28;;;;;;;9.30;2.78;;;;;;;;;;5049844;28;20041;-68
2022/06/13 09:55:58;;;;;;;6.30;1.38;;;;;;;;;;5048179;28;20021;-69
2022/06/13 09:58:37;;;;;;;7.18;1.25;;;;;;;;;;5038664;28;20027;-71
2022/06/13 10:01:13;;;;;;;3.65;1.02;;;;;;;;;;5033922;28;20079;-70
2022/06/13 10:03:58;;;;;;;7.55;3.20;;;;;;;;;;5032371;28;20057;-72
2022/06/13 10:06:29;;;;;;;6.38;1.30;;;;;;;;;;5033290;28;20056;-70
2022/06/13 10:09:14;;;;;;;5.45;1.20;;;;;;;;;;5032831;28;20049;-70
2022/06/13 10:11:49;;;;;;;5.30;1.10;;;;;;;;;;5032827;28;20097;-70
2022/06/13 10:14:20;;;;;;;7.85;1.08;;;;;;;;;;5032237;28;20036;-69
2022/06/13 10:17:04;;;;;;;4.72;1.20;;;;;;;;;;5038758;28;20375;-70
2022/06/13 10:19:50;;;;;;;7.47;1.45;;;;;;;;;;5037777;28;20058;-71
2022/06/13 10:22:24;;;;;;;4.82;0.90;;;;;;;;;;5038764;28;20036;-68
2022/06/13 10:24:53;;;;;;;4.20;1.17;;;;;;;;;;5036614;28;20145;-69
2022/06/13 10:27:27;;;;;;;5.00;0.90;;;;;;;;;;5035789;28;20494;-69
2022/06/13 10:29:59;;;;;;;4.55;1.20;;;;;;;;;;5037932;28;20025;-69
2022/06/13 10:32:25;;;;;;;3.35;1.23;;;;;;;;;;5035520;28;20397;-67
2022/06/13 10:35:24;;;;;;;3.10;1.10;;;;;;;;;;5036587;28;20022;-70
2022/06/13 10:38:10;;;;;;;6.47;1.50;;;;;;;;;;5003099;28;20084;-70
2022/06/13 10:40:36;;;;;;;3.55;1.02;;;;;;;;;;5036615;28;20017;-68
2022/06/13 10:43:04;;;;;;;7.30;1.48;;;;;;;;;;5036198;28;20036;-69
2022/06/13 10:45:30;;;;;;;6.55;1.30;;;;;;;;;;5037323;28;20100;-70
2022/06/13 10:48:09;;;;;;;5.50;1.85;;;;;;;;;;5036129;28;20031;-69
2022/06/13 10:50:35;;;;;;;6.03;1.38;;;;;;;;;;5033391;28;20026;-69
2022/06/13 10:53:03;;;;;;;6.50;1.63;;;;;;;;;;5033452;28;20095;-70
2022/06/13 10:55:31;;;;;;;2.55;0.93;;;;;;;;;;5034621;28;20040;-69
2022/06/13 10:58:00;;;;;;;8.20;1.27;;;;;;;;;;5033194;28;20108;-69
2022/06/13 11:00:28;;;;;;;8.20;1.50;;;;;;;;;;5034435;28;20387;-70
2022/06/13 11:03:14;;;;;;;3.88;0.82;;;;;;;;;;5033052;28;20079;-70
2022/06/13 11:06:16;;;;;;;7.15;1.10;;;;;;;;;;5034158;28;20099;-70
2022/06/13 11:08:43;;;;;;;6.97;1.00;;;;;;;;;;4992958;28;20447;-69
2022/06/13 11:11:16;;;;;;;10.75;1.35;;;;;;;;;;5023462;28;20437;-69
2022/06/13 11:13:43;;;;;;;6.93;0.95;;;;;;;;;;5034264;28;20032;-70
2022/06/13 11:24:54;;;;;;;5.50;1.23;;;;;;;;;;5034496;28;20040;-70
2022/06/13 11:27:42;;;;;;;7.33;1.20;;;;;;;;;;5034081;28;20028;-70
2022/06/13 11:30:19;;;;;;;6.53;1.23;;;;;;;;;;5034376;28;20034;-71
2022/06/13 11:33:05;;;;;;;6.20;1.08;;;;;;;;;;5033629;28;20025;-70
2022/06/13 11:35:45;;;;;;;4.28;1.50;;;;;;;;;;5033763;28;20096;-70
2022/06/13 11:38:26;;;;;;;6.50;1.48;;;;;;;;;;5033845;28;20095;-70
2022/06/13 11:40:58;;;;;;;8.32;1.23;;;;;;;;;;5033751;28;20017;-69
2022/06/13 11:43:32;;;;;;;7.05;2.20;;;;;;;;;;5034790;28;20022;-69
2022/06/13 11:45:59;;;;;;;8.05;1.10;;;;;;;;;;5033737;28;20510;-69
2022/06/13 11:48:26;;;;;;;4.20;0.80;;;;;;;;;;5033918;28;20037;-71
2022/06/13 11:51:04;;;;;;;6.00;1.10;;;;;;;;;;5032989;28;20025;-71
2022/06/13 11:53:36;;;;;;;8.25;1.38;;;;;;;;;;5035532;28;20395;-70
2022/06/13 11:56:04;;;;;;;7.53;1.48;;;;;;;;;;5034757;28;20182;-68
2022/06/13 11:58:37;;;;;;;11.00;1.63;;;;;;;;;;5035309;28;20025;-69
2022/06/13 12:01:12;;;;;;;12.40;1.45;;;;;;;;;;5032945;28;20116;-70
2022/06/13 12:03:42;;;;;;;8.88;1.50;;;;;;;;;;5036396;28;20501;-70
2022/06/13 12:06:08;;;;;;;6.60;1.00;;;;;;;;;;5033055;28;20104;-70
2022/06/13 12:08:34;;;;;;;5.20;1.00;;;;;;;;;;5033174;28;20163;-70
2022/06/13 12:11:02;;;;;;;10.80;1.50;;;;;;;;;;5033264;28;20029;-70
2022/06/13 12:13:29;;;;;;;5.35;1.13;;;;;;;;;;5033381;28;20025;-70
2022/06/13 12:16:13;;;;;;;5.10;0.95;;;;;;;;;;5035550;28;20029;-70
2022/06/13 12:18:39;;;;;;;6.18;1.40;;;;;;;;;;5034357;28;20029;-69
2022/06/13 12:21:09;;;;;;;5.85;1.10;;;;;;;;;;5035979;28;20026;-70
2022/06/13 12:23:42;;;;;;;10.20;1.50;;;;;;;;;;5037428;28;20038;-71
2022/06/13 12:26:27;;;;;;;4.38;0.60;;;;;;;;;;5041007;28;20029;-70
2022/06/13 12:28:56;;;;;;;8.23;1.30;;;;;;;;;;5043742;28;20060;-69
2022/06/13 12:31:34;;;;;;;7.53;1.60;;;;;;;;;;5034326;28;20364;-69
2022/06/13 12:34:00;;;;;;;6.18;0.98;;;;;;;;;;5033220;28;20071;-70
2022/06/13 12:36:26;;;;;;;4.78;1.10;;;;;;;;;;5029497;28;20021;-70
2022/06/13 12:39:04;;;;;;;4.38;1.05;;;;;;;;;;5033074;28;20355;-71
2022/06/13 12:41:30;;;;;;;14.25;1.88;;;;;;;;;;5034835;28;20034;-69
2022/06/13 12:44:17;;;;;;;11.20;1.40;;;;;;;;;;5033747;28;20029;-70
2022/06/13 12:46:45;;;;;;;6.22;1.08;;;;;;;;;;5015464;28;20033;-70
2022/06/13 12:49:11;;;;;;;6.10;1.42;;;;;;;;;;5033213;28;20033;-70
2022/06/13 12:51:56;;;;;;;9.18;1.50;;;;;;;;;;5033095;28;20040;-70
2022/06/13 12:54:22;;;;;;;;;;;;;;;;;;5033321;28;20029;-68
2022/06/13 12:57:06;;;;;;;11.70;1.42;;;;;;;;;;5032873;28;20308;-69
2022/06/13 12:59:43;;;;;;;5.22;1.20;;;;;;;;;;5032285;28;20028;-69
2022/06/13 13:02:24;;;;;;;9.20;1.67;;;;;;;;;;5030392;28;20080;-72
2022/06/13 13:04:57;;;;;;;8.98;1.15;;;;;;;;;;5031076;28;20021;-69
2022/06/13 13:07:29;;;;;;;8.73;1.50;;;;;;;;;;5031818;28;20037;-71
2022/06/13 13:10:01;;;;;;;5.32;0.98;;;;;;;;;;5032283;28;20026;-70
2022/06/13 13:12:40;;;;;;;3.92;0.70;;;;;;;;;;5032267;28;20472;-68
2022/06/13 13:15:10;;;;;;;4.05;0.85;;;;;;;;;;5031760;28;20040;-70
2022/06/13 13:17:58;;;;;;;8.15;2.00;;;;;;;;;;5031396;28;20466;-70
2022/06/13 13:20:45;;;;;;;4.10;0.93;;;;;;;;;;5031912;28;20052;-70
2022/06/13 13:23:10;;;;;;;7.22;1.83;;;;;;;;;;5031878;28;20025;-71
2022/06/13 13:25:42;;;;;;;7.88;1.08;;;;;;;;;;5032599;28;20118;-71
2022/06/13 13:28:11;;;;;;;6.35;1.20;;;;;;;;;;5033583;28;20037;-69
2022/06/13 13:30:50;;;;;;;8.32;1.17;;;;;;;;;;5032337;28;20025;-68
2022/06/13 13:33:19;;;;;;;7.75;1.55;;;;;;;;;;5032426;28;20057;-69
2022/06/13 13:35:51;;;;;;;5.00;1.20;;;;;;;;;;5030187;28;20443;-70
2022/06/13 13:38:21;;;;;;;7.45;1.38;;;;;;;;;;5033592;28;20037;-68
2022/06/13 13:40:53;;;;;;;7.03;1.23;;;;;;;;;;5031613;28;20026;-69
2022/06/13 13:43:26;;;;;;;10.45;1.40;;;;;;;;;;5032051;28;20100;-70
2022/06/13 13:46:11;;;;;;;8.95;1.58;;;;;;;;;;5031563;28;20037;-69
2022/06/13 13:48:43;;;;;;;3.92;1.20;;;;;;;;;;5033485;28;20033;-69
2022/06/13 13:51:13;;;;;;;4.70;0.93;;;;;;;;;;5033118;28;20115;-69
2022/06/13 13:53:43;;;;;;;8.45;1.13;;;;;;;;;;5032386;28;20435;-70
2022/06/13 13:56:17;;;;;;;17.75;5.80;;;;;;;;;;5040353;28;20029;-71
2022/06/13 13:58:44;;;;;;;9.57;1.75;;;;;;;;;;5040648;28;20029;-71
2022/06/13 14:01:25;;;;;;;3.28;0.90;;;;;;;;;;5037010;28;20022;-71
2022/06/13 14:03:57;;;;;;;10.13;1.23;;;;;;;;;;5035502;28;20040;-69
2022/06/13 14:06:27;;;;;;;5.45;1.10;;;;;;;;;;5034456;28;20475;-71
2022/06/13 14:08:55;;;;;;;5.45;1.30;;;;;;;;;;5035988;28;20017;-70
2022/06/13 14:11:21;;;;;;;7.10;1.10;;;;;;;;;;5035757;28;20083;-69
2022/06/13 14:13:48;;;;;;;12.63;1.40;;;;;;;;;;5035907;28;20026;-69
2022/06/13 14:16:16;;;;;;;8.32;1.83;;;;;;;;;;5034406;28;20059;-69
2022/06/13 14:18:45;;;;;;;6.65;1.33;;;;;;;;;;5035117;28;20392;-71
2022/06/13 14:21:18;;;;;;;10.73;1.70;;;;;;;;;;5034940;28;20037;-70
2022/06/13 14:23:49;;;;;;;3.38;1.10;;;;;;;;;;5034814;28;20406;-71
2022/06/13 14:26:19;;;;;;;13.00;1.88;;;;;;;;;;5034146;28;20053;-71
2022/06/13 14:28:50;;;;;;;10.85;1.90;;;;;;;;;;5034691;28;20038;-69
2022/06/13 14:31:16;;;;;;;8.05;1.95;;;;;;;;;;5035083;28;20105;-68
2022/06/13 14:36:48;;;;;;;5.45;1.30;;;;;;;;;;5034854;28;20031;-71
2022/06/13 14:39:17;;;;;;;6.50;1.55;;;;;;;;;;5036895;28;20033;-70
2022/06/13 14:41:44;;;;;;;11.63;1.60;;;;;;;;;;5035930;28;20375;-71
2022/06/13 14:44:19;;;;;;;9.38;1.33;;;;;;;;;;5036094;28;20406;-68
2022/06/13 14:47:03;;;;;;;4.47;1.05;;;;;;;;;;5035185;28;20061;-70
2022/06/13 14:49:42;;;;;;;18.90;1.95;;;;;;;;;;5035785;28;20022;-72
2022/06/13 14:52:09;;;;;;;8.18;1.85;;;;;;;;;;5035547;28;20367;-73
2022/06/13 14:54:46;;;;;;;10.55;1.90;;;;;;;;;;5036506;28;20382;-71
2022/06/13 14:57:28;;;;;;;12.25;2.80;;;;;;;;;;5036349;28;20156;-70
2022/06/13 15:00:07;;;;;;;8.38;2.05;;;;;;;;;;5034455;28;20466;-70
2022/06/13 15:02:54;;;;;;;12.43;2.30;;;;;;;;;;5034354;28;20159;-71
2022/06/13 15:05:21;;;;;;;10.82;2.35;;;;;;;;;;5027239;28;20347;-70
2022/06/13 15:08:10;;;;;;;9.85;2.63;;;;;;;;;;5034249;28;20038;-71
2022/06/13 15:10:54;;;;;;;15.38;2.83;;;;;;;;;;5015264;28;20049;-71
2022/06/13 15:13:22;;;;;;;8.07;2.00;;;;;;;;;;5016325;28;20026;-71
2022/06/13 15:15:52;;;;;;;10.00;2.28;;;;;;;;;;5017956;28;20022;-72
2022/06/13 15:18:20;;;;;;;13.65;2.35;;;;;;;;;;5015677;28;20483;-69
2022/06/13 15:20:47;;;;;;;9.05;1.98;;;;;;;;;;5015208;28;20022;-69
2022/06/13 15:23:29;;;;;;;14.57;2.75;;;;;;;;;;5013421;28;20092;-70
2022/06/13 15:25:55;;;;;;;12.85;2.30;;;;;;;;;;5013527;28;20125;-68
2022/06/13 15:28:22;;;;;;;13.25;2.20;;;;;;;;;;5029102;28;20387;-70